createdAt,value
2018-02-25T00:00:22.980Z,7.18
2018-02-25T00:02:50.549Z,9.80
2018-02-25T00:05:18.113Z,6.15
2018-02-25T00:07:45.682Z,10.07
2018-02-25T00:10:13.247Z,9.90
2018-02-25T00:12:40.792Z,4.47
2018-02-25T00:15:08.340Z,9.13
2018-02-25T00:17:35.981Z,17.20
2018-02-25T00:20:03.529Z,6.87
2018-02-25T00:22:31.871Z,6.65
2018-02-25T00:24:59.420Z,10.23
2018-02-25T00:27:27.007Z,4.43
2018-02-25T00:29:54.562Z,10.10
2018-02-25T00:32:22.125Z,6.10
2018-02-25T00:34:49.678Z,8.90
2018-02-25T00:37:17.231Z,6.15
2018-02-25T00:39:44.866Z,11.35
2018-02-25T00:42:12.432Z,4.32
2018-02-25T00:44:39.979Z,5.18
2018-02-25T00:47:07.561Z,7.40
2018-02-25T00:49:35.123Z,8.40
2018-02-25T00:52:02.663Z,8.57
2018-02-25T00:54:30.242Z,7.90
2018-02-25T00:56:57.845Z,8.20
2018-02-25T00:59:26.182Z,8.60
2018-02-25T01:01:53.740Z,9.95
2018-02-25T01:04:21.300Z,8.43
2018-02-25T01:06:48.830Z,5.85
2018-02-25T01:09:16.395Z,6.40
2018-02-25T01:11:43.982Z,9.52
2018-02-25T01:14:11.546Z,6.93
2018-02-25T01:16:39.086Z,6.00
2018-02-25T01:19:06.656Z,8.50
2018-02-25T01:21:34.210Z,6.72
2018-02-25T01:24:01.770Z,6.00
2018-02-25T01:26:29.337Z,7.53
2018-02-25T01:28:56.959Z,8.27
2018-02-25T01:31:24.601Z,6.07
2018-02-25T01:33:52.921Z,12.37
2018-02-25T01:36:20.478Z,6.97
2018-02-25T01:38:48.013Z,8.38
2018-02-25T01:41:15.582Z,4.07
2018-02-25T01:43:43.128Z,11.00
2018-02-25T01:46:11.456Z,7.82
2018-02-25T01:48:38.990Z,8.70
2018-02-25T01:51:06.557Z,5.28
2018-02-25T01:53:34.120Z,8.63
2018-02-25T01:56:01.679Z,10.95
2018-02-25T01:58:29.234Z,5.25
2018-02-25T02:00:56.805Z,4.40
2018-02-25T02:03:24.362Z,6.43
2018-02-25T02:05:51.905Z,7.53
2018-02-25T02:08:19.493Z,5.15
2018-02-25T02:10:47.061Z,8.05
2018-02-25T02:13:14.623Z,13.32
2018-02-25T02:15:42.180Z,4.30
2018-02-25T02:18:09.771Z,6.40
2018-02-25T02:20:37.318Z,6.18
2018-02-25T02:23:04.883Z,6.10
2018-02-25T02:25:32.454Z,5.78
2018-02-25T02:27:59.984Z,8.73
2018-02-25T02:30:27.561Z,8.18
2018-02-25T02:32:55.130Z,7.28
2018-02-25T02:35:23.455Z,10.77
2018-02-25T02:37:51.038Z,6.80
2018-02-25T02:40:18.624Z,7.75
2018-02-25T02:42:46.220Z,12.05
2018-02-25T02:45:13.778Z,8.40
2018-02-25T02:47:41.361Z,10.82
2018-02-25T02:50:08.937Z,5.97
2018-02-25T02:52:36.508Z,10.55
2018-02-25T02:55:04.046Z,5.53
2018-02-25T02:57:31.709Z,8.85
2018-02-25T02:59:59.248Z,8.63
2018-02-25T03:02:26.825Z,5.95
2018-02-25T03:04:54.389Z,8.13
2018-02-25T03:07:21.932Z,8.45
2018-02-25T03:09:49.503Z,9.82
2018-02-25T03:12:17.076Z,9.27
2018-02-25T03:14:44.664Z,7.95
2018-02-25T03:17:12.216Z,4.87
2018-02-25T03:19:39.777Z,8.60
2018-02-25T03:22:07.325Z,7.00
2018-02-25T03:24:34.905Z,6.70
2018-02-25T03:27:02.445Z,10.98
2018-02-25T03:29:30.002Z,6.10
2018-02-25T03:31:57.565Z,5.03
2018-02-25T03:34:25.129Z,8.43
2018-02-25T03:36:52.706Z,9.18
2018-02-25T03:39:20.299Z,7.75
2018-02-25T03:41:48.619Z,10.45
2018-02-25T03:44:16.182Z,10.23
2018-02-25T03:46:43.734Z,8.55
2018-02-25T03:49:11.337Z,9.30
2018-02-25T03:51:38.901Z,4.40
2018-02-25T03:54:07.220Z,5.87
2018-02-25T03:56:34.793Z,10.52
2018-02-25T03:59:02.335Z,8.57
2018-02-25T04:01:29.900Z,6.82
2018-02-25T04:03:57.440Z,9.70
2018-02-25T04:06:25.005Z,7.05
2018-02-25T04:08:52.557Z,10.82
2018-02-25T04:11:20.886Z,8.98
2018-02-25T04:13:48.457Z,11.73
2018-02-25T04:16:16.018Z,8.90
2018-02-25T04:18:43.555Z,12.60
2018-02-25T04:21:11.157Z,8.75
2018-02-25T04:23:39.488Z,6.87
2018-02-25T04:26:07.032Z,12.95
2018-02-25T04:28:34.672Z,8.10
2018-02-25T04:31:02.257Z,7.50
2018-02-25T04:33:29.856Z,10.02
2018-02-25T04:35:57.420Z,9.43
2018-02-25T04:38:24.997Z,9.27
2018-02-25T04:40:53.356Z,11.23
2018-02-25T04:43:21.691Z,7.60
2018-02-25T04:45:49.337Z,9.38
2018-02-25T04:48:16.896Z,8.35
2018-02-25T04:50:44.476Z,12.20
2018-02-25T04:53:12.063Z,9.18
2018-02-25T04:55:39.625Z,13.15
2018-02-25T04:58:07.182Z,11.15
2018-02-25T05:00:34.781Z,10.07
2018-02-25T05:03:02.345Z,9.07
2018-02-25T05:05:30.681Z,11.80
2018-02-25T05:07:58.266Z,8.30
2018-02-25T05:10:26.597Z,9.07
2018-02-25T05:12:54.139Z,9.95
2018-02-25T05:15:21.722Z,10.70
2018-02-25T05:17:49.282Z,15.82
2018-02-25T05:20:16.847Z,8.38
2018-02-25T05:22:44.433Z,13.02
2018-02-25T05:25:12.029Z,16.25
2018-02-25T05:27:40.366Z,11.85
2018-02-25T05:30:07.965Z,13.48
2018-02-25T05:32:35.570Z,13.02
2018-02-25T05:35:03.257Z,12.57
2018-02-25T05:37:30.810Z,11.57
2018-02-25T05:39:58.352Z,14.82
2018-02-25T05:42:25.926Z,12.85
2018-02-25T05:44:53.501Z,10.68
2018-02-25T05:47:21.061Z,14.48
2018-02-25T05:49:48.640Z,16.67
2018-02-25T05:52:16.975Z,13.88
2018-02-25T05:54:44.525Z,14.23
2018-02-25T05:57:12.112Z,12.15
2018-02-25T05:59:39.692Z,12.02
2018-02-25T06:02:08.034Z,14.50
2018-02-25T06:04:35.600Z,9.05
2018-02-25T06:07:03.150Z,10.68
2018-02-25T06:09:30.733Z,12.05
2018-02-25T06:11:58.302Z,9.38
2018-02-25T06:14:25.874Z,14.52
2018-02-25T06:16:54.199Z,17.98
2018-02-25T06:19:21.770Z,16.77
2018-02-25T06:21:49.329Z,13.48
2018-02-25T06:24:16.907Z,14.70
2018-02-25T06:26:44.537Z,10.88
2018-02-25T06:29:12.096Z,15.73
2018-02-25T06:31:39.657Z,14.32
2018-02-25T06:34:07.213Z,13.82
2018-02-25T06:36:34.801Z,14.82
2018-02-25T06:39:02.389Z,13.45
2018-02-25T06:41:30.006Z,12.57
2018-02-25T06:43:57.550Z,13.13
2018-02-25T06:46:25.126Z,15.68
2018-02-25T06:48:52.678Z,15.90
2018-02-25T06:51:20.255Z,18.62
2018-02-25T06:53:47.800Z,15.45
2018-02-25T06:56:15.377Z,12.20
2018-02-25T06:58:42.966Z,17.67
2018-02-25T07:01:11.330Z,17.67
2018-02-25T07:03:38.897Z,27.75
2018-02-25T07:06:06.530Z,34.45
2018-02-25T07:08:34.075Z,19.20
2018-02-25T07:11:01.657Z,16.27
2018-02-25T07:13:29.258Z,15.85
2018-02-25T07:15:57.572Z,15.80
2018-02-25T07:18:25.160Z,11.55
2018-02-25T07:20:52.745Z,19.75
2018-02-25T07:23:20.282Z,19.20
2018-02-25T07:25:47.880Z,13.90
2018-02-25T07:28:16.219Z,12.93
2018-02-25T07:30:43.788Z,16.55
2018-02-25T07:33:11.356Z,12.95
2018-02-25T07:35:39.204Z,14.65
2018-02-25T07:38:06.773Z,13.35
2018-02-25T07:40:34.334Z,13.75
2018-02-25T07:43:01.902Z,15.13
2018-02-25T07:45:29.476Z,18.55
2018-02-25T07:47:57.104Z,18.30
2018-02-25T07:50:24.646Z,13.60
2018-02-25T07:52:52.230Z,13.50
2018-02-25T07:55:19.773Z,11.55
2018-02-25T07:57:47.384Z,14.38
2018-02-25T08:00:15.713Z,16.85
2018-02-25T08:02:43.288Z,11.48
2018-02-25T08:05:10.840Z,10.35
2018-02-25T08:07:38.437Z,13.35
2018-02-25T08:10:06.784Z,16.17
2018-02-25T08:12:34.320Z,10.95
2018-02-25T08:15:01.890Z,16.60
2018-02-25T08:17:29.473Z,11.50
2018-02-25T08:19:57.059Z,9.63
2018-02-25T08:22:25.388Z,20.98
2018-02-25T08:24:52.950Z,15.35
2018-02-25T08:27:20.505Z,19.77
2018-02-25T08:29:48.038Z,12.55
2018-02-25T08:32:15.613Z,14.20
2018-02-25T08:34:44.358Z,16.65
2018-02-25T08:37:12.083Z,16.30
2018-02-25T08:39:39.656Z,13.10
2018-02-25T08:42:07.210Z,14.90
2018-02-25T08:44:34.777Z,14.45
2018-02-25T08:47:02.352Z,10.35
2018-02-25T08:49:29.919Z,13.38
2018-02-25T08:51:58.725Z,12.93
2018-02-25T08:54:27.046Z,11.25
2018-02-25T08:56:54.604Z,11.55
2018-02-25T08:59:22.163Z,13.15
2018-02-25T09:01:49.732Z,11.45
2018-02-25T09:04:17.286Z,11.70
2018-02-25T09:06:44.862Z,12.52
2018-02-25T09:09:12.455Z,10.63
2018-02-25T09:11:41.525Z,11.00
2018-02-25T09:14:09.086Z,11.57
2018-02-25T09:16:36.704Z,10.43
2018-02-25T09:19:04.267Z,12.02
2018-02-25T09:21:31.872Z,12.27
2018-02-25T09:23:59.428Z,9.25
2018-02-25T09:26:26.988Z,12.55
2018-02-25T09:28:54.545Z,8.52
2018-02-25T09:31:22.133Z,7.95
2018-02-25T09:33:49.742Z,11.75
2018-02-25T09:36:17.315Z,11.10
2018-02-25T09:38:44.884Z,10.60
2018-02-25T09:41:12.453Z,9.68
2018-02-25T09:43:40.076Z,10.18
2018-02-25T09:46:07.615Z,9.15
2018-02-25T09:48:35.997Z,10.25
2018-02-25T09:51:04.320Z,10.15
2018-02-25T09:53:31.881Z,9.45
2018-02-25T09:55:59.459Z,10.77
2018-02-25T09:58:27.021Z,9.90
2018-02-25T10:00:54.568Z,7.28
2018-02-25T10:03:22.151Z,7.65
2018-02-25T10:05:50.485Z,8.10
2018-02-25T10:08:18.069Z,9.80
2018-02-25T10:10:46.416Z,10.68
2018-02-25T10:13:13.968Z,11.10
2018-02-25T10:15:41.535Z,9.07
2018-02-25T10:18:09.073Z,8.90
2018-02-25T10:20:36.665Z,8.13
2018-02-25T10:23:04.198Z,9.15
2018-02-25T10:25:31.780Z,7.43
2018-02-25T10:27:59.343Z,12.23
2018-02-25T10:30:26.912Z,9.68
2018-02-25T10:32:54.489Z,7.87
2018-02-25T10:35:22.038Z,7.50
2018-02-25T10:37:49.591Z,9.85
2018-02-25T10:40:17.170Z,8.15
2018-02-25T10:42:44.754Z,10.35
2018-02-25T10:45:13.074Z,7.60
2018-02-25T10:47:40.649Z,10.48
2018-02-25T10:50:08.206Z,7.78
2018-02-25T10:52:35.805Z,7.70
2018-02-25T10:55:03.530Z,8.65
2018-02-25T10:57:31.098Z,7.28
2018-02-25T10:59:58.754Z,10.20
2018-02-25T11:02:26.333Z,8.75
2018-02-25T11:04:53.925Z,12.10
2018-02-25T11:07:22.239Z,9.15
2018-02-25T11:09:49.826Z,8.70
2018-02-25T11:12:17.427Z,9.05
2018-02-25T11:14:45.034Z,8.98
2018-02-25T11:17:12.707Z,9.80
2018-02-25T11:19:40.290Z,6.85
2018-02-25T11:22:07.850Z,6.57
2018-02-25T11:24:36.173Z,6.97
2018-02-25T11:27:03.733Z,7.40
2018-02-25T11:29:31.333Z,12.57
2018-02-25T11:31:58.910Z,8.18
2018-02-25T11:34:26.452Z,7.37
2018-02-25T11:36:54.012Z,10.13
2018-02-25T11:39:21.608Z,7.22
2018-02-25T11:41:49.909Z,7.47
2018-02-25T11:44:17.484Z,9.52
2018-02-25T11:46:45.033Z,8.07
2018-02-25T11:49:12.596Z,6.65
2018-02-25T11:51:41.308Z,9.73
2018-02-25T11:54:08.905Z,8.98
2018-02-25T11:56:36.479Z,7.55
2018-02-25T11:59:04.096Z,5.90
2018-02-25T12:01:31.652Z,8.27
2018-02-25T12:03:59.215Z,6.15
2018-02-25T12:06:26.800Z,8.45
2018-02-25T12:08:54.380Z,8.18
2018-02-25T12:11:22.701Z,7.62
2018-02-25T12:13:50.279Z,5.70
2018-02-25T12:16:17.919Z,6.28
2018-02-25T12:18:45.478Z,5.35
2018-02-25T12:21:13.072Z,5.12
2018-02-25T12:23:40.604Z,4.78
2018-02-25T12:26:08.160Z,4.65
2018-02-25T12:28:35.704Z,6.95
2018-02-25T12:31:03.270Z,7.18
2018-02-25T12:33:30.881Z,5.80
2018-02-25T12:35:58.458Z,5.05
2018-02-25T12:38:26.771Z,4.57
2018-02-25T12:40:54.329Z,6.10
2018-02-25T12:43:21.890Z,5.32
2018-02-25T12:45:49.445Z,4.55
2018-02-25T12:48:16.997Z,3.90
2018-02-25T12:50:44.553Z,4.32
2018-02-25T12:53:12.188Z,7.00
2018-02-25T12:55:39.764Z,7.70
2018-02-25T12:58:08.109Z,10.02
2018-02-25T13:00:35.671Z,4.00
2018-02-25T13:03:03.249Z,4.35
2018-02-25T13:05:31.565Z,6.10
2018-02-25T13:07:59.163Z,4.30
2018-02-25T13:10:26.733Z,5.60
2018-02-25T13:12:54.311Z,4.85
2018-02-25T13:15:21.910Z,8.15
2018-02-25T13:17:50.357Z,10.25
2018-02-25T13:20:18.698Z,7.00
2018-02-25T13:22:46.246Z,4.80
2018-02-25T13:25:13.801Z,5.20
2018-02-25T13:27:41.372Z,4.60
2018-02-25T13:30:09.125Z,4.40
2018-02-25T13:32:36.684Z,2.75
2018-02-25T13:35:04.271Z,3.15
2018-02-25T13:37:31.853Z,2.50
2018-02-25T13:40:00.278Z,3.37
2018-02-25T13:42:27.845Z,5.20
2018-02-25T13:44:55.445Z,8.82
2018-02-25T13:47:23.073Z,7.97
2018-02-25T13:49:50.658Z,3.05
2018-02-25T13:52:18.255Z,5.70
2018-02-25T13:54:46.598Z,3.70
2018-02-25T13:57:14.196Z,4.03
2018-02-25T13:59:42.555Z,2.25
2018-02-25T14:02:10.127Z,3.37
2018-02-25T14:04:38.455Z,3.40
2018-02-25T14:07:06.001Z,3.25
2018-02-25T14:09:33.549Z,2.50
2018-02-25T14:12:01.129Z,3.72
2018-02-25T14:14:28.696Z,3.10
2018-02-25T14:16:56.250Z,2.62
2018-02-25T14:19:23.838Z,2.42
2018-02-25T14:21:51.391Z,1.92
2018-02-25T14:24:18.995Z,1.92
2018-02-25T14:26:47.403Z,2.85
2018-02-25T14:29:14.970Z,2.40
2018-02-25T14:31:42.558Z,2.42
2018-02-25T14:34:10.133Z,3.15
2018-02-25T14:36:37.680Z,2.65
2018-02-25T14:39:05.222Z,2.83
2018-02-25T14:41:32.791Z,4.10
2018-02-25T14:44:00.330Z,4.45
2018-02-25T14:46:27.916Z,2.35
2018-02-25T14:48:55.667Z,5.95
2018-02-25T14:51:23.238Z,3.60
2018-02-25T14:53:50.826Z,2.47
2018-02-25T14:56:19.167Z,2.17
2018-02-25T14:58:46.706Z,5.65
2018-02-25T15:01:14.269Z,4.18
2018-02-25T15:03:41.810Z,6.85
2018-02-25T15:06:09.380Z,3.67
2018-02-25T15:08:36.972Z,6.55
2018-02-25T15:11:04.539Z,4.87
2018-02-25T15:13:32.099Z,5.37
2018-02-25T15:15:59.645Z,2.22
2018-02-25T15:18:27.204Z,2.58
2018-02-25T15:20:54.752Z,2.50
2018-02-25T15:23:22.326Z,4.18
2018-02-25T15:25:49.933Z,4.97
2018-02-25T15:28:18.290Z,6.28
2018-02-25T15:30:45.875Z,6.37
2018-02-25T15:33:14.227Z,5.70
2018-02-25T15:35:41.780Z,9.55
2018-02-25T15:38:09.352Z,8.35
2018-02-25T15:40:36.933Z,6.60
2018-02-25T15:43:04.511Z,7.97
2018-02-25T15:45:32.190Z,6.53
2018-02-25T15:47:59.861Z,7.53
2018-02-25T15:50:27.437Z,6.72
2018-02-25T15:52:54.993Z,8.55
2018-02-25T15:55:22.563Z,8.73
2018-02-25T15:57:50.101Z,8.32
2018-02-25T16:00:17.829Z,19.42
2018-02-25T16:02:46.149Z,11.00
2018-02-25T16:05:13.750Z,6.93
2018-02-25T16:07:41.282Z,7.10
2018-02-25T16:10:08.907Z,7.72
2018-02-25T16:12:36.479Z,8.18
2018-02-25T16:15:04.054Z,12.57
2018-02-25T16:17:31.665Z,6.87
2018-02-25T16:20:00.008Z,7.55
2018-02-25T16:22:27.554Z,6.32
2018-02-25T16:24:55.145Z,6.10
2018-02-25T16:27:22.732Z,9.65
2018-02-25T16:29:50.305Z,10.02
2018-02-25T16:32:17.866Z,7.35
2018-02-25T16:34:45.477Z,10.68
2018-02-25T16:37:13.050Z,9.27
2018-02-25T16:39:41.366Z,14.63
2018-02-25T16:42:08.975Z,8.93
2018-02-25T16:44:36.542Z,8.43
2018-02-25T16:47:04.133Z,9.38
2018-02-25T16:49:31.733Z,8.27
2018-02-25T16:51:59.318Z,9.15
2018-02-25T16:54:26.886Z,9.32
2018-02-25T16:56:54.470Z,7.60
2018-02-25T16:59:22.801Z,7.57
2018-02-25T17:01:50.364Z,9.05
2018-02-25T17:04:17.949Z,7.32
2018-02-25T17:06:45.527Z,14.87
2018-02-25T17:09:13.869Z,10.50
2018-02-25T17:11:41.423Z,12.98
2018-02-25T17:14:08.988Z,9.50
2018-02-25T17:16:36.589Z,13.93
2018-02-25T17:19:04.158Z,8.15
2018-02-25T17:21:31.789Z,13.98
2018-02-25T17:23:59.413Z,8.90
2018-02-25T17:26:27.014Z,11.75
2018-02-25T17:28:54.630Z,8.38
2018-02-25T17:31:22.165Z,9.45
2018-02-25T17:33:50.267Z,8.68
2018-02-25T17:36:17.837Z,7.70
2018-02-25T17:38:45.451Z,5.70
2018-02-25T17:41:13.076Z,9.05
2018-02-25T17:43:40.701Z,9.43
2018-02-25T17:46:08.282Z,8.23
2018-02-25T17:48:35.860Z,6.07
2018-02-25T17:51:03.425Z,9.02
2018-02-25T17:53:31.005Z,7.85
2018-02-25T17:55:59.365Z,8.80
2018-02-25T17:58:26.973Z,14.68
2018-02-25T18:00:56.345Z,8.43
2018-02-25T18:03:24.666Z,9.50
2018-02-25T18:05:52.261Z,9.18
2018-02-25T18:08:19.908Z,9.23
2018-02-25T18:10:47.495Z,10.80
2018-02-25T18:13:15.079Z,6.32
2018-02-25T18:15:43.408Z,4.75
2018-02-25T18:18:11.027Z,8.02
2018-02-25T18:20:38.619Z,5.97
2018-02-25T18:23:06.191Z,9.60
2018-02-25T18:25:33.812Z,8.52
2018-02-25T18:28:01.378Z,8.70
2018-02-25T18:30:28.948Z,7.30
2018-02-25T18:32:56.496Z,7.95
2018-02-25T18:35:24.067Z,6.53
2018-02-25T18:37:51.609Z,7.50
2018-02-25T18:40:19.953Z,8.80
2018-02-25T18:42:47.570Z,5.50
2018-02-25T18:45:15.131Z,7.95
2018-02-25T18:47:42.705Z,6.95
2018-02-25T18:50:10.255Z,7.00
2018-02-25T18:52:37.823Z,7.60
2018-02-25T18:55:05.395Z,5.03
2018-02-25T18:57:32.954Z,8.35
2018-02-25T19:00:00.532Z,7.40
2018-02-25T19:02:28.113Z,9.35
2018-02-25T19:04:55.722Z,6.65
2018-02-25T19:07:23.292Z,6.47
2018-02-25T19:09:50.854Z,4.90
2018-02-25T19:12:18.412Z,5.60
2018-02-25T19:14:45.996Z,5.15
2018-02-25T19:17:14.360Z,7.72
2018-02-25T19:19:41.926Z,7.15
2018-02-25T19:22:09.536Z,11.93
2018-02-25T19:24:37.156Z,6.20
2018-02-25T19:27:04.746Z,7.45
2018-02-25T19:29:33.121Z,6.07
2018-02-25T19:32:01.510Z,4.87
2018-02-25T19:34:29.821Z,4.82
2018-02-25T19:37:03.119Z,6.35
2018-02-25T19:39:36.226Z,6.10
2018-02-25T19:42:03.848Z,7.05
2018-02-25T19:44:31.404Z,6.22
2018-02-25T19:46:59.011Z,7.12
2018-02-25T19:49:26.551Z,6.47
2018-02-25T19:51:54.170Z,8.02
2018-02-25T19:54:22.521Z,8.75
2018-02-25T19:56:50.906Z,8.98
2018-02-25T19:59:18.484Z,7.10
2018-02-25T20:01:46.797Z,6.60
2018-02-25T20:04:14.387Z,5.82
2018-02-25T20:06:41.966Z,6.40
2018-02-25T20:09:09.724Z,7.43
2018-02-25T20:11:37.316Z,5.40
2018-02-25T20:14:04.884Z,5.00
2018-02-25T20:16:32.501Z,8.63
2018-02-25T20:19:00.102Z,6.55
2018-02-25T20:21:29.082Z,9.43
2018-02-25T20:23:57.537Z,7.12
2018-02-25T20:26:25.093Z,7.78
2018-02-25T20:28:52.683Z,10.13
2018-02-25T20:31:21.010Z,5.93
2018-02-25T20:33:48.629Z,9.55
2018-02-25T20:36:16.971Z,5.57
2018-02-25T20:38:44.551Z,9.50
2018-02-25T20:41:12.150Z,9.82
2018-02-25T20:43:39.729Z,7.40
2018-02-25T20:46:07.341Z,7.28
2018-02-25T20:48:35.651Z,7.57
2018-02-25T20:51:03.202Z,8.02
2018-02-25T20:53:30.787Z,6.10
2018-02-25T20:55:58.407Z,7.45
2018-02-25T20:58:26.734Z,7.55
2018-02-25T21:00:54.318Z,9.73
2018-02-25T21:03:21.872Z,9.68
2018-02-25T21:05:49.436Z,8.30
2018-02-25T21:08:17.016Z,7.43
2018-02-25T21:10:45.361Z,10.45
2018-02-25T21:13:12.944Z,6.30
2018-02-25T21:15:40.544Z,11.05
2018-02-25T21:18:08.109Z,8.63
2018-02-25T21:20:35.665Z,10.07
2018-02-25T21:23:03.218Z,8.75
2018-02-25T21:25:30.772Z,10.63
2018-02-25T21:27:58.386Z,5.30
2018-02-25T21:30:25.940Z,7.85
2018-02-25T21:32:53.513Z,9.88
2018-02-25T21:35:21.151Z,8.63
2018-02-25T21:37:48.734Z,8.00
2018-02-25T21:40:16.290Z,6.72
2018-02-25T21:42:43.862Z,4.37
2018-02-25T21:45:11.440Z,5.78
2018-02-25T21:47:39.791Z,7.28
2018-02-25T21:50:07.353Z,4.10
2018-02-25T21:52:34.955Z,8.80
2018-02-25T21:55:03.305Z,6.80
2018-02-25T21:57:37.261Z,4.68
2018-02-25T22:00:10.445Z,5.22
2018-02-25T22:02:43.592Z,4.18
2018-02-25T22:05:11.165Z,4.40
2018-02-25T22:07:39.525Z,4.78
2018-02-25T22:10:07.098Z,4.22
2018-02-25T22:12:34.653Z,8.23
2018-02-25T22:15:02.235Z,4.53
2018-02-25T22:17:30.556Z,3.97
2018-02-25T22:19:58.132Z,7.55
2018-02-25T22:22:25.684Z,4.10
2018-02-25T22:24:53.240Z,6.18
2018-02-25T22:27:20.796Z,4.40
2018-02-25T22:29:48.362Z,4.95
2018-02-25T22:32:15.949Z,5.10
2018-02-25T22:34:43.517Z,4.55
2018-02-25T22:37:11.065Z,5.25
2018-02-25T22:39:38.660Z,4.12
2018-02-25T22:42:06.232Z,4.65
2018-02-25T22:44:33.851Z,9.27
2018-02-25T22:47:01.397Z,5.35
2018-02-25T22:49:28.960Z,5.25
2018-02-25T22:51:56.545Z,5.60
2018-02-25T22:54:24.164Z,8.60
2018-02-25T22:56:51.710Z,7.18
2018-02-25T22:59:19.304Z,6.15
2018-02-25T23:01:46.850Z,6.72
2018-02-25T23:04:14.454Z,5.47
2018-02-25T23:06:42.768Z,6.32
2018-02-25T23:09:10.345Z,7.35
2018-02-25T23:11:37.897Z,5.97
2018-02-25T23:14:05.469Z,4.65
2018-02-25T23:16:33.010Z,6.45
2018-02-25T23:19:00.580Z,7.05
2018-02-25T23:21:28.161Z,6.68
2018-02-25T23:23:55.717Z,5.10
2018-02-25T23:26:23.288Z,4.05
2018-02-25T23:28:50.863Z,4.82
2018-02-25T23:31:18.415Z,7.50
2018-02-25T23:33:45.993Z,14.40
2018-02-25T23:36:14.326Z,10.55
2018-02-25T23:38:41.897Z,4.57
2018-02-25T23:41:09.465Z,3.97
2018-02-25T23:43:37.019Z,10.15
2018-02-25T23:46:04.586Z,4.47
2018-02-25T23:48:32.113Z,6.00
2018-02-25T23:50:59.717Z,6.72
2018-02-25T23:53:27.256Z,6.40
2018-02-25T23:55:54.821Z,8.45
2018-02-25T23:58:22.413Z,7.10
